sensor_id;sensor_type;location;lat;lon;timestamp;pressure;altitude;pressure_sealevel;temperature
14851;BMP180;7517;48.400;11.770;2023-03-15T00:01:06;95659.00;;;9.50
14851;BMP180;7517;48.400;11.770;2023-03-15T00:03:34;95656.00;;;9.50
14851;BMP180;7517;48.400;11.770;2023-03-15T00:06:03;95660.00;;;9.50
14851;BMP180;7517;48.400;11.770;2023-03-15T00:08:32;95664.00;;;9.50
14851;BMP180;7517;48.400;11.770;2023-03-15T00:11:00;95657.00;;;9.50
14851;BMP180;7517;48.400;11.770;2023-03-15T00:13:29;95680.00;;;9.50
14851;BMP180;7517;48.400;11.770;2023-03-15T00:15:59;95672.00;;;9.60
14851;BMP180;7517;48.400;11.770;2023-03-15T00:18:28;95676.00;;;9.50
14851;BMP180;7517;48.400;11.770;2023-03-15T00:20:55;95682.00;;;9.50
14851;BMP180;7517;48.400;11.770;2023-03-15T00:23:23;95671.00;;;9.50
14851;BMP180;7517;48.400;11.770;2023-03-15T00:25:52;95672.00;;;9.40
14851;BMP180;7517;48.400;11.770;2023-03-15T00:28:19;95664.00;;;9.40
14851;BMP180;7517;48.400;11.770;2023-03-15T00:30:49;95669.00;;;9.40
14851;BMP180;7517;48.400;11.770;2023-03-15T00:33:16;95669.00;;;9.40
14851;BMP180;7517;48.400;11.770;2023-03-15T00:35:44;95657.00;;;9.40
14851;BMP180;7517;48.400;11.770;2023-03-15T00:38:12;95659.00;;;9.40
14851;BMP180;7517;48.400;11.770;2023-03-15T00:40:40;95662.00;;;9.40
14851;BMP180;7517;48.400;11.770;2023-03-15T00:43:09;95661.00;;;9.40
14851;BMP180;7517;48.400;11.770;2023-03-15T00:45:37;95657.00;;;9.40
14851;BMP180;7517;48.400;11.770;2023-03-15T00:48:05;95656.00;;;9.40
14851;BMP180;7517;48.400;11.770;2023-03-15T00:50:32;95655.00;;;9.40
14851;BMP180;7517;48.400;11.770;2023-03-15T00:53:00;95664.00;;;9.40
14851;BMP180;7517;48.400;11.770;2023-03-15T00:55:27;95662.00;;;9.40
14851;BMP180;7517;48.400;11.770;2023-03-15T00:57:55;95669.00;;;9.40
14851;BMP180;7517;48.400;11.770;2023-03-15T01:00:24;95677.00;;;9.40
14851;BMP180;7517;48.400;11.770;2023-03-15T01:02:53;95689.00;;;9.30
14851;BMP180;7517;48.400;11.770;2023-03-15T01:05:21;95687.00;;;9.30
14851;BMP180;7517;48.400;11.770;2023-03-15T01:07:50;95688.00;;;9.30
14851;BMP180;7517;48.400;11.770;2023-03-15T01:10:18;95692.00;;;9.30
14851;BMP180;7517;48.400;11.770;2023-03-15T01:12:45;95689.00;;;9.20
14851;BMP180;7517;48.400;11.770;2023-03-15T01:15:15;95683.00;;;9.20
14851;BMP180;7517;48.400;11.770;2023-03-15T01:17:44;95685.00;;;9.20
14851;BMP180;7517;48.400;11.770;2023-03-15T01:20:14;95692.00;;;9.20
14851;BMP180;7517;48.400;11.770;2023-03-15T01:22:42;95688.00;;;9.10
14851;BMP180;7517;48.400;11.770;2023-03-15T01:25:09;95688.00;;;9.10
14851;BMP180;7517;48.400;11.770;2023-03-15T01:27:37;95688.00;;;9.00
14851;BMP180;7517;48.400;11.770;2023-03-15T01:30:07;95682.00;;;9.00
14851;BMP180;7517;48.400;11.770;2023-03-15T01:32:34;95686.00;;;8.90
14851;BMP180;7517;48.400;11.770;2023-03-15T01:35:04;95682.00;;;8.90
14851;BMP180;7517;48.400;11.770;2023-03-15T01:37:31;95676.00;;;8.90
14851;BMP180;7517;48.400;11.770;2023-03-15T01:39:59;95677.00;;;8.80
14851;BMP180;7517;48.400;11.770;2023-03-15T01:42:31;95681.00;;;8.80
14851;BMP180;7517;48.400;11.770;2023-03-15T01:44:59;95679.00;;;8.80
14851;BMP180;7517;48.400;11.770;2023-03-15T01:47:27;95681.00;;;8.70
14851;BMP180;7517;48.400;11.770;2023-03-15T01:50:02;95681.00;;;8.70
14851;BMP180;7517;48.400;11.770;2023-03-15T01:52:38;95679.00;;;8.70
14851;BMP180;7517;48.400;11.770;2023-03-15T01:55:12;95676.00;;;8.70
14851;BMP180;7517;48.400;11.770;2023-03-15T01:57:45;95668.00;;;8.60
14851;BMP180;7517;48.400;11.770;2023-03-15T02:00:18;95670.00;;;8.60
14851;BMP180;7517;48.400;11.770;2023-03-15T02:02:51;95692.00;;;8.60
14851;BMP180;7517;48.400;11.770;2023-03-15T02:05:24;95691.00;;;8.60
14851;BMP180;7517;48.400;11.770;2023-03-15T02:07:55;95688.00;;;8.60
14851;BMP180;7517;48.400;11.770;2023-03-15T02:10:29;95689.00;;;8.60
14851;BMP180;7517;48.400;11.770;2023-03-15T02:12:58;95693.00;;;8.60
14851;BMP180;7517;48.400;11.770;2023-03-15T02:15:26;95700.00;;;8.60
14851;BMP180;7517;48.400;11.770;2023-03-15T02:17:53;95705.00;;;8.60
14851;BMP180;7517;48.400;11.770;2023-03-15T02:20:32;95710.00;;;8.60
14851;BMP180;7517;48.400;11.770;2023-03-15T02:23:07;95720.00;;;8.60
14851;BMP180;7517;48.400;11.770;2023-03-15T02:25:45;95716.00;;;8.60
14851;BMP180;7517;48.400;11.770;2023-03-15T02:28:18;95723.00;;;8.60
14851;BMP180;7517;48.400;11.770;2023-03-15T02:30:47;95721.00;;;8.70
14851;BMP180;7517;48.400;11.770;2023-03-15T02:33:20;95734.00;;;8.60
14851;BMP180;7517;48.400;11.770;2023-03-15T02:35:49;95742.00;;;8.60
14851;BMP180;7517;48.400;11.770;2023-03-15T02:38:16;95754.00;;;8.60
14851;BMP180;7517;48.400;11.770;2023-03-15T02:40:45;95763.00;;;8.50
14851;BMP180;7517;48.400;11.770;2023-03-15T02:43:18;95767.00;;;8.50
14851;BMP180;7517;48.400;11.770;2023-03-15T02:45:46;95775.00;;;8.50
14851;BMP180;7517;48.400;11.770;2023-03-15T02:48:15;95789.00;;;8.50
14851;BMP180;7517;48.400;11.770;2023-03-15T02:50:43;95793.00;;;8.40
14851;BMP180;7517;48.400;11.770;2023-03-15T02:53:11;95805.00;;;8.30
14851;BMP180;7517;48.400;11.770;2023-03-15T02:55:38;95817.00;;;8.20
14851;BMP180;7517;48.400;11.770;2023-03-15T02:58:06;95823.00;;;8.20
14851;BMP180;7517;48.400;11.770;2023-03-15T03:00:35;95829.00;;;8.10
14851;BMP180;7517;48.400;11.770;2023-03-15T03:03:02;95832.00;;;8.10
14851;BMP180;7517;48.400;11.770;2023-03-15T03:05:29;95852.00;;;8.00
14851;BMP180;7517;48.400;11.770;2023-03-15T03:07:57;95854.00;;;7.90
14851;BMP180;7517;48.400;11.770;2023-03-15T03:10:25;95859.00;;;7.80
14851;BMP180;7517;48.400;11.770;2023-03-15T03:12:52;95870.00;;;7.80
14851;BMP180;7517;48.400;11.770;2023-03-15T03:15:20;95870.00;;;7.70
14851;BMP180;7517;48.400;11.770;2023-03-15T03:17:49;95872.00;;;7.60
14851;BMP180;7517;48.400;11.770;2023-03-15T03:20:17;95883.00;;;7.50
14851;BMP180;7517;48.400;11.770;2023-03-15T03:22:44;95890.00;;;7.40
14851;BMP180;7517;48.400;11.770;2023-03-15T03:25:12;95892.00;;;7.40
14851;BMP180;7517;48.400;11.770;2023-03-15T03:27:40;95905.00;;;7.40
14851;BMP180;7517;48.400;11.770;2023-03-15T03:30:12;95907.00;;;7.40
14851;BMP180;7517;48.400;11.770;2023-03-15T03:32:39;95912.00;;;7.30
14851;BMP180;7517;48.400;11.770;2023-03-15T03:35:09;95930.00;;;7.30
14851;BMP180;7517;48.400;11.770;2023-03-15T03:37:36;95939.00;;;7.30
14851;BMP180;7517;48.400;11.770;2023-03-15T03:40:05;95948.00;;;7.20
14851;BMP180;7517;48.400;11.770;2023-03-15T03:42:34;95958.00;;;7.20
14851;BMP180;7517;48.400;11.770;2023-03-15T03:45:02;95961.00;;;7.20
14851;BMP180;7517;48.400;11.770;2023-03-15T03:47:29;95967.00;;;7.20
14851;BMP180;7517;48.400;11.770;2023-03-15T03:49:57;95975.00;;;7.20
14851;BMP180;7517;48.400;11.770;2023-03-15T03:52:27;95981.00;;;7.20
14851;BMP180;7517;48.400;11.770;2023-03-15T03:54:54;95989.00;;;7.20
14851;BMP180;7517;48.400;11.770;2023-03-15T03:57:22;95995.00;;;7.20
14851;BMP180;7517;48.400;11.770;2023-03-15T03:59:49;96006.00;;;7.10
14851;BMP180;7517;48.400;11.770;2023-03-15T04:02:17;96014.00;;;7.10
14851;BMP180;7517;48.400;11.770;2023-03-15T04:04:44;96014.00;;;7.10
14851;BMP180;7517;48.400;11.770;2023-03-15T04:07:15;96020.00;;;7.10
14851;BMP180;7517;48.400;11.770;2023-03-15T04:09:44;96029.00;;;7.10
14851;BMP180;7517;48.400;11.770;2023-03-15T04:12:12;96036.00;;;7.10
14851;BMP180;7517;48.400;11.770;2023-03-15T04:14:39;96046.00;;;7.00
14851;BMP180;7517;48.400;11.770;2023-03-15T04:17:07;96055.00;;;7.00
14851;BMP180;7517;48.400;11.770;2023-03-15T04:19:35;96057.00;;;7.00
14851;BMP180;7517;48.400;11.770;2023-03-15T04:22:02;96064.00;;;6.90
14851;BMP180;7517;48.400;11.770;2023-03-15T04:24:32;96071.00;;;6.90
14851;BMP180;7517;48.400;11.770;2023-03-15T04:27:02;96063.00;;;6.90
14851;BMP180;7517;48.400;11.770;2023-03-15T04:29:30;96078.00;;;6.80
14851;BMP180;7517;48.400;11.770;2023-03-15T04:31:57;96078.00;;;6.80
14851;BMP180;7517;48.400;11.770;2023-03-15T04:34:28;96095.00;;;6.70
14851;BMP180;7517;48.400;11.770;2023-03-15T04:36:56;96101.00;;;6.70
14851;BMP180;7517;48.400;11.770;2023-03-15T04:39:23;96109.00;;;6.60
14851;BMP180;7517;48.400;11.770;2023-03-15T04:41:51;96124.00;;;6.60
14851;BMP180;7517;48.400;11.770;2023-03-15T04:44:21;96115.00;;;6.60
14851;BMP180;7517;48.400;11.770;2023-03-15T04:46:51;96122.00;;;6.50
14851;BMP180;7517;48.400;11.770;2023-03-15T04:49:19;96137.00;;;6.50
14851;BMP180;7517;48.400;11.770;2023-03-15T04:51:46;96141.00;;;6.40
14851;BMP180;7517;48.400;11.770;2023-03-15T04:54:13;96147.00;;;6.40
14851;BMP180;7517;48.400;11.770;2023-03-15T04:56:41;96148.00;;;6.40
14851;BMP180;7517;48.400;11.770;2023-03-15T04:59:08;96154.00;;;6.30
14851;BMP180;7517;48.400;11.770;2023-03-15T05:01:37;96158.00;;;6.30
14851;BMP180;7517;48.400;11.770;2023-03-15T05:04:05;96161.00;;;6.30
14851;BMP180;7517;48.400;11.770;2023-03-15T05:06:32;96161.00;;;6.30
14851;BMP180;7517;48.400;11.770;2023-03-15T05:08:59;96171.00;;;6.30
14851;BMP180;7517;48.400;11.770;2023-03-15T05:11:26;96178.00;;;6.30
14851;BMP180;7517;48.400;11.770;2023-03-15T05:13:54;96173.00;;;6.30
14851;BMP180;7517;48.400;11.770;2023-03-15T05:16:22;96185.00;;;6.30
14851;BMP180;7517;48.400;11.770;2023-03-15T05:18:50;96186.00;;;6.30
14851;BMP180;7517;48.400;11.770;2023-03-15T05:21:19;96191.00;;;6.30
14851;BMP180;7517;48.400;11.770;2023-03-15T05:23:46;96194.00;;;6.30
14851;BMP180;7517;48.400;11.770;2023-03-15T05:26:16;96201.00;;;6.30
14851;BMP180;7517;48.400;11.770;2023-03-15T05:28:43;96209.00;;;6.30
14851;BMP180;7517;48.400;11.770;2023-03-15T05:31:11;96214.00;;;6.30
14851;BMP180;7517;48.400;11.770;2023-03-15T05:33:38;96230.00;;;6.30
14851;BMP180;7517;48.400;11.770;2023-03-15T05:36:13;96230.00;;;6.40
14851;BMP180;7517;48.400;11.770;2023-03-15T05:38:40;96239.00;;;6.40
14851;BMP180;7517;48.400;11.770;2023-03-15T05:41:07;96245.00;;;6.50
14851;BMP180;7517;48.400;11.770;2023-03-15T05:43:35;96253.00;;;6.50
14851;BMP180;7517;48.400;11.770;2023-03-15T05:46:03;96258.00;;;6.60
14851;BMP180;7517;48.400;11.770;2023-03-15T05:48:30;96255.00;;;6.60
14851;BMP180;7517;48.400;11.770;2023-03-15T05:50:57;96266.00;;;6.70
14851;BMP180;7517;48.400;11.770;2023-03-15T05:53:26;96276.00;;;6.70
14851;BMP180;7517;48.400;11.770;2023-03-15T05:55:53;96277.00;;;6.70
14851;BMP180;7517;48.400;11.770;2023-03-15T05:58:20;96285.00;;;6.70
14851;BMP180;7517;48.400;11.770;2023-03-15T06:00:48;96288.00;;;6.70
14851;BMP180;7517;48.400;11.770;2023-03-15T06:03:15;96293.00;;;6.80
14851;BMP180;7517;48.400;11.770;2023-03-15T06:05:42;96295.00;;;6.80
14851;BMP180;7517;48.400;11.770;2023-03-15T06:08:10;96301.00;;;6.80
14851;BMP180;7517;48.400;11.770;2023-03-15T06:10:39;96309.00;;;6.80
14851;BMP180;7517;48.400;11.770;2023-03-15T06:13:06;96306.00;;;6.80
14851;BMP180;7517;48.400;11.770;2023-03-15T06:15:33;96309.00;;;6.80
14851;BMP180;7517;48.400;11.770;2023-03-15T06:18:00;96323.00;;;6.70
14851;BMP180;7517;48.400;11.770;2023-03-15T06:20:28;96322.00;;;6.70
14851;BMP180;7517;48.400;11.770;2023-03-15T06:22:56;96336.00;;;6.80
14851;BMP180;7517;48.400;11.770;2023-03-15T06:25:24;96331.00;;;6.80
14851;BMP180;7517;48.400;11.770;2023-03-15T06:27:53;96336.00;;;6.80
14851;BMP180;7517;48.400;11.770;2023-03-15T06:30:20;96336.00;;;6.80
14851;BMP180;7517;48.400;11.770;2023-03-15T06:32:47;96334.00;;;6.80
14851;BMP180;7517;48.400;11.770;2023-03-15T06:35:15;96347.00;;;6.80
14851;BMP180;7517;48.400;11.770;2023-03-15T06:37:42;96341.00;;;6.80
14851;BMP180;7517;48.400;11.770;2023-03-15T06:40:11;96349.00;;;6.80
14851;BMP180;7517;48.400;11.770;2023-03-15T06:42:39;96348.00;;;6.80
14851;BMP180;7517;48.400;11.770;2023-03-15T06:45:10;96349.00;;;6.80
14851;BMP180;7517;48.400;11.770;2023-03-15T06:47:37;96355.00;;;6.80
14851;BMP180;7517;48.400;11.770;2023-03-15T06:50:06;96355.00;;;6.80
14851;BMP180;7517;48.400;11.770;2023-03-15T06:52:33;96356.00;;;6.70
14851;BMP180;7517;48.400;11.770;2023-03-15T06:55:01;96359.00;;;6.70
14851;BMP180;7517;48.400;11.770;2023-03-15T06:57:28;96354.00;;;6.70
14851;BMP180;7517;48.400;11.770;2023-03-15T06:59:57;96360.00;;;6.70
14851;BMP180;7517;48.400;11.770;2023-03-15T07:02:26;96363.00;;;6.70
14851;BMP180;7517;48.400;11.770;2023-03-15T07:04:57;96361.00;;;6.70
14851;BMP180;7517;48.400;11.770;2023-03-15T07:07:25;96364.00;;;6.70
14851;BMP180;7517;48.400;11.770;2023-03-15T07:09:52;96361.00;;;6.70
14851;BMP180;7517;48.400;11.770;2023-03-15T07:12:20;96361.00;;;6.70
14851;BMP180;7517;48.400;11.770;2023-03-15T07:14:47;96354.00;;;6.60
14851;BMP180;7517;48.400;11.770;2023-03-15T07:17:14;96349.00;;;6.70
14851;BMP180;7517;48.400;11.770;2023-03-15T07:19:43;96360.00;;;6.70
14851;BMP180;7517;48.400;11.770;2023-03-15T07:22:10;96370.00;;;6.70
14851;BMP180;7517;48.400;11.770;2023-03-15T07:24:38;96366.00;;;6.70
14851;BMP180;7517;48.400;11.770;2023-03-15T07:27:05;96366.00;;;6.70
14851;BMP180;7517;48.400;11.770;2023-03-15T07:29:33;96371.00;;;6.70
14851;BMP180;7517;48.400;11.770;2023-03-15T07:32:01;96382.00;;;6.70
14851;BMP180;7517;48.400;11.770;2023-03-15T07:34:29;96379.00;;;6.70
14851;BMP180;7517;48.400;11.770;2023-03-15T07:36:58;96381.00;;;6.80
14851;BMP180;7517;48.400;11.770;2023-03-15T07:39:25;96388.00;;;6.80
14851;BMP180;7517;48.400;11.770;2023-03-15T07:41:53;96388.00;;;6.80
14851;BMP180;7517;48.400;11.770;2023-03-15T07:44:21;96390.00;;;6.90
14851;BMP180;7517;48.400;11.770;2023-03-15T07:46:48;96410.00;;;6.90
14851;BMP180;7517;48.400;11.770;2023-03-15T07:49:16;96405.00;;;7.10
14851;BMP180;7517;48.400;11.770;2023-03-15T07:51:44;96418.00;;;7.20
14851;BMP180;7517;48.400;11.770;2023-03-15T07:54:12;96411.00;;;7.40
14851;BMP180;7517;48.400;11.770;2023-03-15T07:56:40;96408.00;;;7.50
14851;BMP180;7517;48.400;11.770;2023-03-15T07:59:07;96416.00;;;7.60
14851;BMP180;7517;48.400;11.770;2023-03-15T08:01:34;96411.00;;;7.80
14851;BMP180;7517;48.400;11.770;2023-03-15T08:04:02;96406.00;;;8.00
14851;BMP180;7517;48.400;11.770;2023-03-15T08:06:30;96414.00;;;8.20
14851;BMP180;7517;48.400;11.770;2023-03-15T08:08:57;96416.00;;;8.30
14851;BMP180;7517;48.400;11.770;2023-03-15T08:11:27;96427.00;;;8.40
14851;BMP180;7517;48.400;11.770;2023-03-15T08:13:55;96414.00;;;8.40
14851;BMP180;7517;48.400;11.770;2023-03-15T08:16:22;96417.00;;;8.40
14851;BMP180;7517;48.400;11.770;2023-03-15T08:18:50;96426.00;;;8.30
14851;BMP180;7517;48.400;11.770;2023-03-15T08:21:17;96422.00;;;8.20
14851;BMP180;7517;48.400;11.770;2023-03-15T08:23:44;96422.00;;;8.20
14851;BMP180;7517;48.400;11.770;2023-03-15T08:26:12;96423.00;;;8.20
14851;BMP180;7517;48.400;11.770;2023-03-15T08:28:44;96423.00;;;8.20
14851;BMP180;7517;48.400;11.770;2023-03-15T08:31:11;96426.00;;;8.40
14851;BMP180;7517;48.400;11.770;2023-03-15T08:33:40;96428.00;;;8.60
14851;BMP180;7517;48.400;11.770;2023-03-15T08:36:08;96435.00;;;8.70
14851;BMP180;7517;48.400;11.770;2023-03-15T08:38:36;96440.00;;;8.70
14851;BMP180;7517;48.400;11.770;2023-03-15T08:41:04;96433.00;;;8.80
14851;BMP180;7517;48.400;11.770;2023-03-15T08:43:32;96425.00;;;8.80
14851;BMP180;7517;48.400;11.770;2023-03-15T08:46:00;96418.00;;;8.90
14851;BMP180;7517;48.400;11.770;2023-03-15T08:48:28;96415.00;;;9.10
14851;BMP180;7517;48.400;11.770;2023-03-15T08:51:00;96425.00;;;9.20
14851;BMP180;7517;48.400;11.770;2023-03-15T08:53:29;96429.00;;;9.40
14851;BMP180;7517;48.400;11.770;2023-03-15T08:55:56;96440.00;;;9.50
14851;BMP180;7517;48.400;11.770;2023-03-15T08:58:24;96433.00;;;9.70
14851;BMP180;7517;48.400;11.770;2023-03-15T09:00:52;96424.00;;;9.70
14851;BMP180;7517;48.400;11.770;2023-03-15T09:03:20;96421.00;;;9.80
14851;BMP180;7517;48.400;11.770;2023-03-15T09:05:49;96423.00;;;9.80
14851;BMP180;7517;48.400;11.770;2023-03-15T09:08:18;96423.00;;;9.80
14851;BMP180;7517;48.400;11.770;2023-03-15T09:10:46;96429.00;;;9.80
14851;BMP180;7517;48.400;11.770;2023-03-15T09:13:13;96431.00;;;9.80
14851;BMP180;7517;48.400;11.770;2023-03-15T09:15:41;96420.00;;;9.70
14851;BMP180;7517;48.400;11.770;2023-03-15T09:18:08;96418.00;;;9.70
14851;BMP180;7517;48.400;11.770;2023-03-15T09:20:37;96433.00;;;9.70
14851;BMP180;7517;48.400;11.770;2023-03-15T09:23:04;96426.00;;;9.70
14851;BMP180;7517;48.400;11.770;2023-03-15T09:25:33;96430.00;;;9.70
14851;BMP180;7517;48.400;11.770;2023-03-15T09:28:02;96431.00;;;9.60
14851;BMP180;7517;48.400;11.770;2023-03-15T09:30:29;96433.00;;;9.60
14851;BMP180;7517;48.400;11.770;2023-03-15T09:32:57;96441.00;;;9.60
14851;BMP180;7517;48.400;11.770;2023-03-15T09:35:24;96445.00;;;9.60
14851;BMP180;7517;48.400;11.770;2023-03-15T09:37:53;96434.00;;;9.60
14851;BMP180;7517;48.400;11.770;2023-03-15T09:40:27;96436.00;;;9.60
14851;BMP180;7517;48.400;11.770;2023-03-15T09:43:07;96433.00;;;9.80
14851;BMP180;7517;48.400;11.770;2023-03-15T09:45:58;96441.00;;;10.10
14851;BMP180;7517;48.400;11.770;2023-03-15T09:48:31;96450.00;;;10.50
14851;BMP180;7517;48.400;11.770;2023-03-15T09:51:08;96449.00;;;10.90
14851;BMP180;7517;48.400;11.770;2023-03-15T09:53:45;96443.00;;;11.20
14851;BMP180;7517;48.400;11.770;2023-03-15T09:56:23;96471.00;;;11.40
14851;BMP180;7517;48.400;11.770;2023-03-15T09:58:58;96467.00;;;11.50
14851;BMP180;7517;48.400;11.770;2023-03-15T10:01:30;96466.00;;;11.60
14851;BMP180;7517;48.400;11.770;2023-03-15T10:04:07;96465.00;;;11.60
14851;BMP180;7517;48.400;11.770;2023-03-15T10:06:37;96476.00;;;11.60
14851;BMP180;7517;48.400;11.770;2023-03-15T10:09:17;96471.00;;;11.70
14851;BMP180;7517;48.400;11.770;2023-03-15T10:11:58;96471.00;;;11.90
14851;BMP180;7517;48.400;11.770;2023-03-15T10:14:49;96483.00;;;12.20
14851;BMP180;7517;48.400;11.770;2023-03-15T10:17:29;96476.00;;;12.50
14851;BMP180;7517;48.400;11.770;2023-03-15T10:20:06;96490.00;;;12.80
14851;BMP180;7517;48.400;11.770;2023-03-15T10:22:45;96488.00;;;13.00
14851;BMP180;7517;48.400;11.770;2023-03-15T10:25:19;96499.00;;;13.30
14851;BMP180;7517;48.400;11.770;2023-03-15T10:27:55;96493.00;;;13.50
14851;BMP180;7517;48.400;11.770;2023-03-15T10:30:26;96493.00;;;13.40
14851;BMP180;7517;48.400;11.770;2023-03-15T10:32:58;96492.00;;;13.30
14851;BMP180;7517;48.400;11.770;2023-03-15T10:35:28;96491.00;;;13.20
14851;BMP180;7517;48.400;11.770;2023-03-15T10:37:57;96492.00;;;13.20
14851;BMP180;7517;48.400;11.770;2023-03-15T10:40:44;96479.00;;;13.30
14851;BMP180;7517;48.400;11.770;2023-03-15T10:43:19;96483.00;;;13.50
14851;BMP180;7517;48.400;11.770;2023-03-15T10:45:58;96488.00;;;13.70
14851;BMP180;7517;48.400;11.770;2023-03-15T10:48:28;96490.00;;;13.80
14851;BMP180;7517;48.400;11.770;2023-03-15T10:50:56;96478.00;;;14.00
14851;BMP180;7517;48.400;11.770;2023-03-15T10:53:24;96487.00;;;14.10
14851;BMP180;7517;48.400;11.770;2023-03-15T10:56:02;96490.00;;;14.20
14851;BMP180;7517;48.400;11.770;2023-03-15T10:58:41;96486.00;;;14.30
14851;BMP180;7517;48.400;11.770;2023-03-15T11:01:21;96483.00;;;14.20
14851;BMP180;7517;48.400;11.770;2023-03-15T11:04:08;96479.00;;;14.20
14851;BMP180;7517;48.400;11.770;2023-03-15T11:06:43;96469.00;;;14.20
14851;BMP180;7517;48.400;11.770;2023-03-15T11:09:13;96468.00;;;14.20
14851;BMP180;7517;48.400;11.770;2023-03-15T11:11:56;96466.00;;;14.20
14851;BMP180;7517;48.400;11.770;2023-03-15T11:14:25;96462.00;;;14.10
14851;BMP180;7517;48.400;11.770;2023-03-15T11:16:55;96464.00;;;14.00
14851;BMP180;7517;48.400;11.770;2023-03-15T11:19:28;96452.00;;;13.90
14851;BMP180;7517;48.400;11.770;2023-03-15T11:22:00;96459.00;;;13.90
14851;BMP180;7517;48.400;11.770;2023-03-15T11:24:30;96463.00;;;13.80
14851;BMP180;7517;48.400;11.770;2023-03-15T11:27:02;96460.00;;;13.80
14851;BMP180;7517;48.400;11.770;2023-03-15T11:29:32;96458.00;;;13.70
14851;BMP180;7517;48.400;11.770;2023-03-15T11:32:11;96453.00;;;13.60
14851;BMP180;7517;48.400;11.770;2023-03-15T11:34:47;96453.00;;;13.60
14851;BMP180;7517;48.400;11.770;2023-03-15T11:37:21;96452.00;;;13.50
14851;BMP180;7517;48.400;11.770;2023-03-15T11:39:57;96450.00;;;13.40
14851;BMP180;7517;48.400;11.770;2023-03-15T11:42:37;96446.00;;;13.30
14851;BMP180;7517;48.400;11.770;2023-03-15T11:45:17;96440.00;;;13.30
14851;BMP180;7517;48.400;11.770;2023-03-15T11:47:52;96439.00;;;13.30
14851;BMP180;7517;48.400;11.770;2023-03-15T11:50:20;96440.00;;;13.30
14851;BMP180;7517;48.400;11.770;2023-03-15T11:52:50;96440.00;;;13.20
14851;BMP180;7517;48.400;11.770;2023-03-15T11:55:24;96426.00;;;13.20
14851;BMP180;7517;48.400;11.770;2023-03-15T11:57:55;96424.00;;;13.10
14851;BMP180;7517;48.400;11.770;2023-03-15T12:00:50;96410.00;;;13.10
14851;BMP180;7517;48.400;11.770;2023-03-15T12:03:34;96416.00;;;12.90
14851;BMP180;7517;48.400;11.770;2023-03-15T12:06:32;96409.00;;;12.80
14851;BMP180;7517;48.400;11.770;2023-03-15T12:09:00;96414.00;;;12.80
14851;BMP180;7517;48.400;11.770;2023-03-15T12:11:40;96411.00;;;12.70
14851;BMP180;7517;48.400;11.770;2023-03-15T12:14:31;96406.00;;;12.60
14851;BMP180;7517;48.400;11.770;2023-03-15T12:17:41;96401.00;;;12.50
14851;BMP180;7517;48.400;11.770;2023-03-15T12:20:26;96402.00;;;12.50
14851;BMP180;7517;48.400;11.770;2023-03-15T12:23:20;96391.00;;;12.50
14851;BMP180;7517;48.400;11.770;2023-03-15T12:25:54;96393.00;;;12.50
14851;BMP180;7517;48.400;11.770;2023-03-15T12:28:26;96378.00;;;12.50
14851;BMP180;7517;48.400;11.770;2023-03-15T12:30:59;96376.00;;;12.40
14851;BMP180;7517;48.400;11.770;2023-03-15T12:33:31;96377.00;;;12.40
14851;BMP180;7517;48.400;11.770;2023-03-15T12:36:07;96378.00;;;12.40
14851;BMP180;7517;48.400;11.770;2023-03-15T12:38:38;96379.00;;;12.50
14851;BMP180;7517;48.400;11.770;2023-03-15T12:41:31;96378.00;;;12.50
14851;BMP180;7517;48.400;11.770;2023-03-15T12:47:02;96378.00;;;12.50
14851;BMP180;7517;48.400;11.770;2023-03-15T12:49:38;96379.00;;;12.60
14851;BMP180;7517;48.400;11.770;2023-03-15T12:52:27;96376.00;;;12.70
14851;BMP180;7517;48.400;11.770;2023-03-15T12:55:05;96376.00;;;12.80
14851;BMP180;7517;48.400;11.770;2023-03-15T12:57:45;96377.00;;;12.90
14851;BMP180;7517;48.400;11.770;2023-03-15T13:00:16;96385.00;;;13.00
14851;BMP180;7517;48.400;11.770;2023-03-15T13:02:50;96383.00;;;13.00
14851;BMP180;7517;48.400;11.770;2023-03-15T13:05:23;96389.00;;;13.00
14851;BMP180;7517;48.400;11.770;2023-03-15T13:08:04;96379.00;;;13.10
14851;BMP180;7517;48.400;11.770;2023-03-15T13:10:55;96389.00;;;13.10
14851;BMP180;7517;48.400;11.770;2023-03-15T13:14:04;96389.00;;;13.00
14851;BMP180;7517;48.400;11.770;2023-03-15T13:16:37;96394.00;;;13.00
14851;BMP180;7517;48.400;11.770;2023-03-15T13:22:17;96391.00;;;13.10
14851;BMP180;7517;48.400;11.770;2023-03-15T13:24:56;96397.00;;;13.10
14851;BMP180;7517;48.400;11.770;2023-03-15T13:27:43;96383.00;;;13.00
14851;BMP180;7517;48.400;11.770;2023-03-15T13:30:35;96379.00;;;13.00
14851;BMP180;7517;48.400;11.770;2023-03-15T13:33:19;96385.00;;;13.00
14851;BMP180;7517;48.400;11.770;2023-03-15T13:35:53;96381.00;;;12.90
14851;BMP180;7517;48.400;11.770;2023-03-15T13:38:29;96382.00;;;13.00
14851;BMP180;7517;48.400;11.770;2023-03-15T13:40:59;96384.00;;;13.00
14851;BMP180;7517;48.400;11.770;2023-03-15T13:43:30;96393.00;;;13.00
14851;BMP180;7517;48.400;11.770;2023-03-15T13:45:59;96388.00;;;13.10
14851;BMP180;7517;48.400;11.770;2023-03-15T13:48:29;96403.00;;;13.10
14851;BMP180;7517;48.400;11.770;2023-03-15T13:51:03;96392.00;;;13.10
14851;BMP180;7517;48.400;11.770;2023-03-15T13:53:37;96394.00;;;13.20
14851;BMP180;7517;48.400;11.770;2023-03-15T13:56:07;96383.00;;;13.20
14851;BMP180;7517;48.400;11.770;2023-03-15T13:58:37;96389.00;;;13.20
14851;BMP180;7517;48.400;11.770;2023-03-15T14:01:10;96389.00;;;13.20
14851;BMP180;7517;48.400;11.770;2023-03-15T14:03:41;96393.00;;;13.10
14851;BMP180;7517;48.400;11.770;2023-03-15T14:06:20;96389.00;;;13.10
14851;BMP180;7517;48.400;11.770;2023-03-15T14:08:53;96392.00;;;13.10
14851;BMP180;7517;48.400;11.770;2023-03-15T14:11:34;96392.00;;;13.10
14851;BMP180;7517;48.400;11.770;2023-03-15T14:14:21;96395.00;;;13.10
14851;BMP180;7517;48.400;11.770;2023-03-15T14:16:50;96406.00;;;13.10
14851;BMP180;7517;48.400;11.770;2023-03-15T14:19:20;96403.00;;;13.00
14851;BMP180;7517;48.400;11.770;2023-03-15T14:21:52;96412.00;;;13.00
14851;BMP180;7517;48.400;11.770;2023-03-15T14:24:28;96426.00;;;12.90
14851;BMP180;7517;48.400;11.770;2023-03-15T14:26:59;96409.00;;;12.90
14851;BMP180;7517;48.400;11.770;2023-03-15T14:29:30;96420.00;;;12.80
14851;BMP180;7517;48.400;11.770;2023-03-15T14:32:00;96419.00;;;12.80
14851;BMP180;7517;48.400;11.770;2023-03-15T14:34:34;96416.00;;;12.70
14851;BMP180;7517;48.400;11.770;2023-03-15T14:37:07;96408.00;;;12.70
14851;BMP180;7517;48.400;11.770;2023-03-15T14:39:40;96416.00;;;12.70
14851;BMP180;7517;48.400;11.770;2023-03-15T14:42:10;96424.00;;;12.70
14851;BMP180;7517;48.400;11.770;2023-03-15T14:44:38;96427.00;;;12.70